Time,TemperatureF,DewpointF,PressureIn,WindDirection,WindDirectionDegrees,WindSpeedMPH,WindSpeedGustMPH,Humidity,HourlyPrecipIn,Conditions,Clouds,dailyrainin,SoftwareType,DateUTC
2013-02-15 00:07:00,30.8,29.0,30.11,SW,217,0.0,0.0,91,0.00,,,0.00,weatherlink.com 1.10,2013-02-15 05:07:00,
2013-02-15 00:22:00,30.3,28.0,30.11,SW,217,0.0,1.0,91,0.00,,,0.00,weatherlink.com 1.10,2013-02-15 05:22:00,
2013-02-15 00:37:00,30.1,28.0,30.11,SSW,211,0.0,1.0,92,0.00,,,0.00,weatherlink.com 1.10,2013-02-15 05:37:00,
2013-02-15 00:52:00,29.8,28.0,30.11,SW,226,0.0,2.0,92,0.00,,,0.00,weatherlink.com 1.10,2013-02-15 05:52:00,
2013-02-15 01:07:00,29.7,28.0,30.12,SW,226,0.0,1.0,92,0.00,,,0.00,weatherlink.com 1.10,2013-02-15 06:07:00,
2013-02-15 01:22:00,29.7,28.0,30.12,SSW,204,1.0,2.0,92,0.00,,,0.00,weatherlink.com 1.10,2013-02-15 06:22:00,
2013-02-15 01:37:00,29.4,27.0,30.12,South,181,1.0,2.0,92,0.00,,,0.00,weatherlink.com 1.10,2013-02-15 06:37:00,
2013-02-15 01:52:00,29.3,27.0,30.12,SSE,164,0.0,2.0,92,0.00,,,0.00,weatherlink.com 1.10,2013-02-15 06:52:00,
2013-02-15 02:07:00,29.4,28.0,30.12,ENE,60,0.0,1.0,93,0.00,,,0.00,weatherlink.com 1.10,2013-02-15 07:07:00,
2013-02-15 02:22:00,29.1,27.0,30.12,SW,219,0.0,2.0,93,0.00,,,0.00,weatherlink.com 1.10,2013-02-15 07:22:00,
2013-02-15 02:37:00,28.5,27.0,30.12,SW,224,0.0,1.0,93,0.00,,,0.00,weatherlink.com 1.10,2013-02-15 07:37:00,
2013-02-15 02:52:00,28.2,27.0,30.11,SW,224,0.0,0.0,94,0.00,,,0.00,weatherlink.com 1.10,2013-02-15 07:52:00,
2013-02-15 03:07:00,28.3,27.0,30.11,SE,131,0.0,1.0,94,0.00,,,0.00,weatherlink.com 1.10,2013-02-15 08:07:00,
2013-02-15 03:22:00,28.1,27.0,30.11,SSW,212,1.0,2.0,94,0.00,,,0.00,weatherlink.com 1.10,2013-02-15 08:22:00,
2013-02-15 03:37:00,27.9,26.0,30.11,SSW,210,0.0,1.0,94,0.00,,,0.00,weatherlink.com 1.10,2013-02-15 08:37:00,
2013-02-15 03:52:00,27.7,26.0,30.11,SW,221,0.0,1.0,94,0.00,,,0.00,weatherlink.com 1.10,2013-02-15 08:52:00,
2013-02-15 04:07:00,27.6,26.0,30.12,SW,221,0.0,1.0,94,0.00,,,0.00,weatherlink.com 1.10,2013-02-15 09:07:00,
2013-02-15 04:22:00,27.5,26.0,30.12,SSW,202,0.0,1.0,95,0.00,,,0.00,weatherlink.com 1.10,2013-02-15 09:22:00,
2013-02-15 04:37:00,27.8,27.0,30.12,SSW,205,2.0,2.0,95,0.00,,,0.00,weatherlink.com 1.10,2013-02-15 09:37:00,
2013-02-15 04:52:00,27.2,26.0,30.11,South,184,1.0,4.0,94,0.00,,,0.00,weatherlink.com 1.10,2013-02-15 09:52:00,
2013-02-15 05:08:00,27.0,26.0,30.12,SSW,194,1.0,3.0,94,0.00,,,0.00,weatherlink.com 1.10,2013-02-15 10:08:00,
2013-02-15 05:23:00,27.4,26.0,30.12,SSW,205,2.0,4.0,94,0.00,,,0.00,weatherlink.com 1.10,2013-02-15 10:23:00,
2013-02-15 05:38:00,27.5,26.0,30.12,SW,233,2.0,4.0,94,0.00,,,0.00,weatherlink.com 1.10,2013-02-15 10:38:00,
2013-02-15 05:53:00,27.6,26.0,30.12,SSE,164,3.0,4.0,94,0.00,,,0.00,weatherlink.com 1.10,2013-02-15 10:53:00,
2013-02-15 06:08:00,27.5,26.0,30.12,SSW,211,0.0,2.0,94,0.00,,,0.00,weatherlink.com 1.10,2013-02-15 11:08:00,
2013-02-15 06:23:00,27.0,26.0,30.13,SSW,211,0.0,1.0,94,0.00,,,0.00,weatherlink.com 1.10,2013-02-15 11:23:00,
2013-02-15 06:38:00,26.7,25.0,30.14,SSW,210,1.0,2.0,94,0.00,,,0.00,weatherlink.com 1.10,2013-02-15 11:38:00,
2013-02-15 06:53:00,26.8,26.0,30.15,SSE,158,0.0,2.0,95,0.00,,,0.00,weatherlink.com 1.10,2013-02-15 11:53:00,
2013-02-15 07:08:00,26.5,25.0,30.15,SSW,204,2.0,3.0,94,0.00,,,0.00,weatherlink.com 1.10,2013-02-15 12:08:00,
2013-02-15 07:23:00,26.6,25.0,30.15,SSW,204,3.0,3.0,94,0.00,,,0.00,weatherlink.com 1.10,2013-02-15 12:23:00,
2013-02-15 07:38:00,26.6,25.0,30.15,South,178,0.0,1.0,94,0.00,,,0.00,weatherlink.com 1.10,2013-02-15 12:38:00,
2013-02-15 07:53:00,27.0,26.0,30.16,SW,215,1.0,3.0,94,0.00,,,0.00,weatherlink.com 1.10,2013-02-15 12:53:00,
2013-02-15 08:08:00,27.4,26.0,30.16,South,171,0.0,1.0,94,0.00,,,0.00,weatherlink.com 1.10,2013-02-15 13:08:00,
2013-02-15 08:23:00,29.0,28.0,30.17,NE,51,0.0,2.0,95,0.00,,,0.00,weatherlink.com 1.10,2013-02-15 13:23:00,
2013-02-15 08:38:00,31.6,30.0,30.17,ENE,62,0.0,0.0,94,0.00,,,0.00,weatherlink.com 1.10,2013-02-15 13:38:00,
2013-02-15 08:53:00,34.7,32.0,30.17,ENE,63,0.0,0.0,89,0.00,,,0.00,weatherlink.com 1.10,2013-02-15 13:53:00,
2013-02-15 09:08:00,35.9,32.0,30.17,NNW,330,0.0,1.0,85,0.00,,,0.00,weatherlink.com 1.10,2013-02-15 14:08:00,
2013-02-15 09:23:00,36.7,32.0,30.16,SE,128,0.0,1.0,83,0.00,,,0.00,weatherlink.com 1.10,2013-02-15 14:23:00,
2013-02-15 09:38:00,38.7,32.0,30.16,SSW,211,1.0,2.0,78,0.00,,,0.00,weatherlink.com 1.10,2013-02-15 14:38:00,
2013-02-15 09:53:00,39.2,33.0,30.15,WSW,238,3.0,3.0,78,0.00,,,0.00,weatherlink.com 1.10,2013-02-15 14:53:00,
2013-02-15 10:08:00,41.1,33.0,30.14,SW,222,3.0,6.0,72,0.00,,,0.00,weatherlink.com 1.10,2013-02-15 15:08:00,
2013-02-15 10:38:00,44.7,34.0,30.13,South,188,1.0,6.0,66,0.00,,,0.00,weatherlink.com 1.10,2013-02-15 15:38:00,
2013-02-15 10:53:00,46.3,34.0,30.13,SW,232,3.0,4.0,63,0.00,,,0.00,weatherlink.com 1.10,2013-02-15 15:53:00,
2013-02-15 11:08:00,48.9,35.0,30.12,SSW,195,2.0,4.0,59,0.00,,,0.00,weatherlink.com 1.10,2013-02-15 16:08:00,
2013-02-15 11:24:00,52.1,34.0,30.11,SSW,198,0.0,3.0,51,0.00,,,0.00,weatherlink.com 1.10,2013-02-15 16:24:00,
2013-02-15 11:39:00,53.2,34.0,30.10,NE,36,0.0,5.0,48,0.00,,,0.00,weatherlink.com 1.10,2013-02-15 16:39:00,
2013-02-15 11:54:00,53.9,33.0,30.10,SSE,159,4.0,7.0,46,0.00,,,0.00,weatherlink.com 1.10,2013-02-15 16:54:00,
2013-02-15 12:09:00,54.7,33.0,30.09,ESE,120,4.0,5.0,44,0.00,,,0.00,weatherlink.com 1.10,2013-02-15 17:09:00,
2013-02-15 12:24:00,54.7,32.0,30.08,NNW,342,1.0,4.0,43,0.00,,,0.00,weatherlink.com 1.10,2013-02-15 17:24:00,
2013-02-15 12:39:00,54.6,31.0,30.07,SE,128,2.0,7.0,40,0.00,,,0.00,weatherlink.com 1.10,2013-02-15 17:39:00,
2013-02-15 12:54:00,56.1,30.0,30.05,SE,134,5.0,11.0,37,0.00,,,0.00,weatherlink.com 1.10,2013-02-15 17:54:00,
2013-02-15 13:09:00,56.6,32.0,30.04,SSE,159,3.0,9.0,39,0.00,,,0.00,weatherlink.com 1.10,2013-02-15 18:09:00,
2013-02-15 13:24:00,56.5,30.0,30.04,SSE,152,8.0,8.0,36,0.00,,,0.00,weatherlink.com 1.10,2013-02-15 18:24:00,
2013-02-15 13:39:00,54.7,29.0,30.03,ESE,118,1.0,9.0,38,0.00,,,0.00,weatherlink.com 1.10,2013-02-15 18:39:00,
2013-02-15 13:54:00,54.8,29.0,30.02,SW,219,0.0,3.0,38,0.00,,,0.00,weatherlink.com 1.10,2013-02-15 18:54:00,
2013-02-15 14:09:00,54.2,30.0,30.02,North,349,3.0,6.0,39,0.00,,,0.00,weatherlink.com 1.10,2013-02-15 19:09:00,
2013-02-15 14:24:00,53.7,31.0,30.01,NNW,340,2.0,8.0,43,0.00,,,0.00,weatherlink.com 1.10,2013-02-15 19:24:00,
2013-02-15 14:39:00,54.3,30.0,30.01,West,281,0.0,1.0,40,0.00,,,0.00,weatherlink.com 1.10,2013-02-15 19:39:00,
2013-02-15 14:54:00,55.0,31.0,30.00,ESE,115,1.0,2.0,40,0.00,,,0.00,weatherlink.com 1.10,2013-02-15 19:54:00,
2013-02-15 15:09:00,54.2,31.0,30.00,NW,318,0.0,3.0,42,0.00,,,0.00,weatherlink.com 1.10,2013-02-15 20:09:00,
2013-02-15 15:24:00,54.3,31.0,30.00,North,349,8.0,13.0,42,0.00,,,0.00,weatherlink.com 1.10,2013-02-15 20:24:00,
2013-02-15 15:39:00,53.7,32.0,30.00,North,5,7.0,10.0,44,0.00,,,0.00,weatherlink.com 1.10,2013-02-15 20:39:00,
2013-02-15 15:54:00,52.9,33.0,30.00,NNW,347,7.0,15.0,47,0.00,,,0.00,weatherlink.com 1.10,2013-02-15 20:54:00,
2013-02-15 16:09:00,51.5,36.0,30.00,NE,41,11.0,19.0,55,0.00,,,0.00,weatherlink.com 1.10,2013-02-15 21:09:00,
2013-02-15 16:24:00,50.6,36.0,30.00,North,5,12.0,19.0,58,0.00,,,0.00,weatherlink.com 1.10,2013-02-15 21:24:00,
2013-02-15 16:39:00,50.3,37.0,30.01,North,5,5.0,12.0,60,0.00,,,0.00,weatherlink.com 1.10,2013-02-15 21:39:00,
2013-02-15 16:54:00,51.1,36.0,30.01,NNW,333,15.0,20.0,56,0.00,,,0.00,weatherlink.com 1.10,2013-02-15 21:54:00,
2013-02-15 17:09:00,47.0,38.0,30.02,NNE,30,14.0,24.0,70,0.00,,,0.00,weatherlink.com 1.10,2013-02-15 22:09:00,
2013-02-15 17:24:00,44.8,38.0,30.04,NNE,12,12.0,22.0,78,0.00,,,0.00,weatherlink.com 1.10,2013-02-15 22:24:00,
2013-02-15 17:39:00,43.9,38.0,30.04,NNE,14,12.0,18.0,80,0.00,,,0.00,weatherlink.com 1.10,2013-02-15 22:39:00,
2013-02-15 17:54:00,43.3,38.0,30.05,NNE,18,12.0,24.0,81,0.00,,,0.00,weatherlink.com 1.10,2013-02-15 22:54:00,
2013-02-15 18:09:00,42.9,37.0,30.06,NNE,14,10.0,23.0,81,0.00,,,0.00,weatherlink.com 1.10,2013-02-15 23:09:00,
2013-02-15 18:24:00,41.9,37.0,30.07,NNE,14,11.0,23.0,83,0.00,,,0.00,weatherlink.com 1.10,2013-02-15 23:24:00,
2013-02-15 18:39:00,41.0,37.0,30.07,NNW,338,8.0,19.0,85,0.00,,,0.00,weatherlink.com 1.10,2013-02-15 23:39:00,
2013-02-15 18:54:00,40.4,37.0,30.08,North,360,10.0,16.0,87,0.00,,,0.00,weatherlink.com 1.10,2013-02-15 23:54:00,
2013-02-15 19:09:00,39.8,37.0,30.09,NNE,12,14.0,17.0,89,0.01,,,0.01,weatherlink.com 1.10,2013-02-16 00:09:00,
2013-02-15 19:24:00,39.0,36.0,30.09,NNE,13,15.0,21.0,89,0.01,,,0.01,weatherlink.com 1.10,2013-02-16 00:24:00,
2013-02-15 19:39:00,38.7,36.0,30.10,North,354,12.0,20.0,89,0.01,,,0.01,weatherlink.com 1.10,2013-02-16 00:39:00,
2013-02-15 19:54:00,38.3,35.0,30.10,North,355,11.0,20.0,87,0.01,,,0.01,weatherlink.com 1.10,2013-02-16 00:54:00,
2013-02-15 20:09:00,38.0,35.0,30.10,North,1,12.0,19.0,87,0.00,,,0.01,weatherlink.com 1.10,2013-02-16 01:09:00,
2013-02-15 20:24:00,37.9,35.0,30.10,North,4,11.0,15.0,88,0.00,,,0.01,weatherlink.com 1.10,2013-02-16 01:24:00,
2013-02-15 20:39:00,37.6,34.0,30.09,NNW,338,15.0,21.0,87,0.00,,,0.01,weatherlink.com 1.10,2013-02-16 01:39:00,
2013-02-15 20:54:00,37.4,34.0,30.10,North,358,7.0,17.0,88,0.00,,,0.01,weatherlink.com 1.10,2013-02-16 01:54:00,
2013-02-15 21:09:00,37.1,34.0,30.10,NNW,348,12.0,20.0,87,0.00,,,0.01,weatherlink.com 1.10,2013-02-16 02:09:00,
2013-02-15 21:24:00,36.8,33.0,30.10,NNE,12,14.0,18.0,87,0.00,,,0.01,weatherlink.com 1.10,2013-02-16 02:24:00,
2013-02-15 21:39:00,36.4,33.0,30.11,NNW,347,13.0,15.0,88,0.00,,,0.01,weatherlink.com 1.10,2013-02-16 02:39:00,
2013-02-15 21:54:00,36.1,33.0,30.11,NNE,14,9.0,15.0,88,0.00,,,0.01,weatherlink.com 1.10,2013-02-16 02:54:00,
2013-02-15 22:09:00,36.0,33.0,30.10,North,5,11.0,13.0,88,0.00,,,0.01,weatherlink.com 1.10,2013-02-16 03:09:00,
2013-02-15 22:24:00,35.4,32.0,30.11,NNE,14,8.0,26.0,87,0.00,,,0.01,weatherlink.com 1.10,2013-02-16 03:24:00,
2013-02-15 22:40:00,34.6,30.0,30.12,NNE,18,15.0,21.0,84,0.00,,,0.01,weatherlink.com 1.10,2013-02-16 03:40:00,
2013-02-15 22:55:00,34.2,30.0,30.12,NNW,344,10.0,15.0,84,0.00,,,0.01,weatherlink.com 1.10,2013-02-16 03:55:00,
2013-02-15 23:10:00,34.1,30.0,30.11,NNW,330,10.0,16.0,86,0.00,,,0.01,weatherlink.com 1.10,2013-02-16 04:10:00,
2013-02-15 23:25:00,33.8,30.0,30.11,NNE,24,8.0,15.0,86,0.00,,,0.01,weatherlink.com 1.10,2013-02-16 04:25:00,
2013-02-15 23:40:00,33.9,30.0,30.11,North,349,9.0,11.0,86,0.00,,,0.01,weatherlink.com 1.10,2013-02-16 04:40:00,
2013-02-15 23:55:00,33.7,30.0,30.10,NW,323,4.0,13.0,86,0.00,,,0.01,weatherlink.com 1.10,2013-02-16 04:55:00,